Time;durP1;ratioP1;P1;durP2;ratioP2;P2;SDS_P1;SDS_P2;PMS_P1;PMS_P2;Temp;Humidity;BMP_temperature;BMP_pressure;BME280_temperature;BME280_humidity;BME280_pressure;Samples;Min_cycle;Max_cycle;Signal;HPM_P1;HPM_P2
2021/07/20 00:00:47;;;;;;;15.32;9.52;;;16.30;94.00;;;;;;2058960;28;20033;-68
2021/07/20 00:01:48;;;;;;;11.95;8.60;;;16.30;93.90;;;;;;2057469;28;20035;-68
2021/07/20 00:02:55;;;;;;;11.13;8.75;;;16.30;94.00;;;;;;2058030;28;20106;-68
2021/07/20 00:03:55;;;;;;;14.68;8.63;;;16.30;94.10;;;;;;2057138;28;20030;-67
2021/07/20 00:04:56;;;;;;;13.95;9.60;;;16.30;94.20;;;;;;2058005;28;20057;-68
2021/07/20 00:05:57;;;;;;;14.35;9.23;;;16.30;94.20;;;;;;2056899;28;20031;-67
2021/07/20 00:06:57;;;;;;;14.07;9.40;;;16.30;94.30;;;;;;2049090;29;20442;-67
2021/07/20 00:08:00;;;;;;;12.25;9.23;;;16.30;94.40;;;;;;2057128;28;20078;-67
2021/07/20 00:09:02;;;;;;;13.52;9.75;;;16.20;94.60;;;;;;2057706;28;20027;-68
2021/07/20 00:10:10;;;;;;;12.50;8.80;;;16.30;94.80;;;;;;2057024;28;20039;-67
2021/07/20 00:11:11;;;;;;;14.27;9.40;;;16.20;94.80;;;;;;2057039;28;20042;-67
2021/07/20 00:12:11;;;;;;;12.55;9.13;;;16.20;95.20;;;;;;2057472;28;20062;-68
2021/07/20 00:13:12;;;;;;;13.43;8.95;;;16.20;95.50;;;;;;2057158;28;20121;-67
2021/07/20 00:14:13;;;;;;;14.40;9.43;;;16.20;95.70;;;;;;2057043;28;20039;-68
2021/07/20 00:15:15;;;;;;;13.32;9.13;;;16.20;95.90;;;;;;2041002;28;20036;-68
2021/07/20 00:16:16;;;;;;;12.55;9.55;;;16.20;96.10;;;;;;2049034;28;20573;-67
2021/07/20 00:17:21;;;;;;;12.98;9.15;;;16.10;96.20;;;;;;2057422;28;20027;-68
2021/07/20 00:18:25;;;;;;;11.88;8.90;;;16.10;96.30;;;;;;2056895;28;20035;-67
2021/07/20 00:19:25;;;;;;;13.75;9.10;;;16.10;96.40;;;;;;2056972;28;20031;-67
2021/07/20 00:20:28;;;;;;;15.13;9.60;;;16.10;96.20;;;;;;2056752;28;20117;-68
2021/07/20 00:21:29;;;;;;;14.20;9.15;;;16.10;96.30;;;;;;2056717;28;20039;-68
2021/07/20 00:22:29;;;;;;;14.50;9.43;;;16.10;96.40;;;;;;2056722;28;20038;-68
2021/07/20 00:23:31;;;;;;;14.15;9.57;;;16.10;96.50;;;;;;2056429;28;20465;-67
2021/07/20 00:24:31;;;;;;;16.13;9.70;;;16.10;96.40;;;;;;2057454;28;20039;-68
2021/07/20 00:25:32;;;;;;;15.05;9.73;;;16.10;96.30;;;;;;2056816;28;20066;-67
2021/07/20 00:26:33;;;;;;;13.23;8.98;;;16.10;96.30;;;;;;2056706;28;20482;-67
2021/07/20 00:27:34;;;;;;;14.38;9.38;;;16.10;96.40;;;;;;2056783;28;20514;-69
2021/07/20 00:28:36;;;;;;;14.10;9.40;;;16.10;96.30;;;;;;2056859;28;20034;-67
2021/07/20 00:29:36;;;;;;;14.45;9.65;;;16.20;96.30;;;;;;2056816;28;20108;-68
2021/07/20 00:30:38;;;;;;;14.68;9.77;;;16.10;96.40;;;;;;2048777;28;20051;-67
2021/07/20 00:31:39;;;;;;;14.55;9.90;;;16.10;96.60;;;;;;2048732;29;20051;-67
2021/07/20 00:32:40;;;;;;;13.13;9.90;;;16.10;96.60;;;;;;2056718;28;20035;-69
2021/07/20 00:33:41;;;;;;;13.50;9.80;;;16.10;96.70;;;;;;2048417;28;20027;-68
2021/07/20 00:34:42;;;;;;;13.25;10.25;;;16.10;96.80;;;;;;2048839;28;20039;-67
2021/07/20 00:35:43;;;;;;;14.43;9.80;;;16.10;96.70;;;;;;2064753;28;20026;-67
2021/07/20 00:36:44;;;;;;;17.23;10.27;;;16.10;96.60;;;;;;2056759;28;20029;-68
2021/07/20 00:37:45;;;;;;;13.82;9.43;;;16.10;96.70;;;;;;2056860;28;20022;-67
2021/07/20 00:38:46;;;;;;;13.55;9.60;;;16.10;96.70;;;;;;2056783;28;20030;-67
2021/07/20 00:39:47;;;;;;;13.90;9.43;;;16.00;97.10;;;;;;2056790;28;20046;-67
2021/07/20 00:40:47;;;;;;;14.55;9.60;;;16.00;97.30;;;;;;2057314;28;20033;-67
2021/07/20 00:41:48;;;;;;;15.52;9.80;;;16.00;97.20;;;;;;2057239;28;20129;-68
2021/07/20 00:42:49;;;;;;;13.27;9.75;;;16.00;97.30;;;;;;2056514;28;20099;-68
2021/07/20 00:43:50;;;;;;;14.75;10.00;;;15.90;97.80;;;;;;2040515;29;20138;-68
2021/07/20 00:44:51;;;;;;;14.32;10.10;;;15.90;97.70;;;;;;2048812;28;20030;-67
2021/07/20 00:45:52;;;;;;;14.77;9.90;;;15.90;98.10;;;;;;2056735;28;20746;-67
2021/07/20 00:46:53;;;;;;;13.20;9.90;;;15.80;98.30;;;;;;2056714;28;20057;-68
2021/07/20 00:47:54;;;;;;;15.00;10.23;;;15.80;98.30;;;;;;2048690;28;20024;-70
2021/07/20 00:48:55;;;;;;;14.30;10.55;;;15.80;98.50;;;;;;2048695;29;20695;-68
2021/07/20 00:50:00;;;;;;;15.02;10.23;;;15.80;98.70;;;;;;2056614;28;20019;-67
2021/07/20 00:51:01;;;;;;;15.63;10.38;;;15.70;98.60;;;;;;2057301;28;20027;-68
2021/07/20 00:52:02;;;;;;;14.38;10.13;;;15.70;98.80;;;;;;2056982;28;20031;-67
2021/07/20 00:53:05;;;;;;;15.60;10.80;;;15.70;98.90;;;;;;2057211;28;20019;-67
2021/07/20 00:54:09;;;;;;;15.40;10.73;;;15.70;99.20;;;;;;2056293;28;20019;-68
2021/07/20 00:55:10;;;;;;;13.02;10.05;;;15.70;99.60;;;;;;2056764;28;20039;-68
2021/07/20 00:56:12;;;;;;;15.30;10.38;;;15.60;99.80;;;;;;2057051;28;20082;-68
2021/07/20 00:57:15;;;;;;;17.40;10.57;;;15.60;99.90;;;;;;2056665;28;20030;-68
2021/07/20 00:58:17;;;;;;;15.15;10.40;;;15.60;99.90;;;;;;2056609;28;20034;-67
2021/07/20 00:59:19;;;;;;;14.93;10.38;;;15.60;99.90;;;;;;2057172;28;20397;-68
2021/07/20 01:00:22;;;;;;;13.90;10.10;;;15.60;99.90;;;;;;2056510;28;20031;-67
2021/07/20 01:01:25;;;;;;;15.02;10.60;;;15.50;99.90;;;;;;2056480;28;20117;-68
2021/07/20 01:02:29;;;;;;;14.77;10.88;;;15.50;99.90;;;;;;2056346;28;20027;-68
2021/07/20 01:03:33;;;;;;;16.05;10.93;;;15.50;99.90;;;;;;2048507;28;20035;-67
2021/07/20 01:04:36;;;;;;;15.80;11.02;;;15.50;99.90;;;;;;2056705;28;20019;-67
2021/07/20 01:05:40;;;;;;;18.65;10.93;;;15.40;99.90;;;;;;2056264;28;20419;-67
2021/07/20 01:06:48;;;;;;;17.17;11.27;;;15.40;99.90;;;;;;2056638;28;20378;-68
2021/07/20 01:07:50;;;;;;;18.15;11.50;;;15.40;99.90;;;;;;2056708;28;20429;-68
2021/07/20 01:08:53;;;;;;;15.93;11.27;;;15.40;99.90;;;;;;2056719;28;20019;-68
2021/07/20 01:09:57;;;;;;;17.00;11.00;;;15.40;99.90;;;;;;2056639;28;20031;-68
2021/07/20 01:11:02;;;;;;;14.38;10.35;;;15.40;99.90;;;;;;2056093;28;20062;-68
2021/07/20 01:12:05;;;;;;;16.65;11.30;;;15.40;99.90;;;;;;2056582;28;20109;-68
2021/07/20 01:13:18;;;;;;;18.25;11.35;;;15.40;99.90;;;;;;2056129;28;20089;-67
2021/07/20 01:14:23;;;;;;;15.82;10.20;;;15.40;99.90;;;;;;2056602;28;20503;-68
2021/07/20 01:15:24;;;;;;;16.92;10.75;;;15.40;99.90;;;;;;2056577;28;20035;-67
2021/07/20 01:16:26;;;;;;;16.75;10.88;;;15.40;99.90;;;;;;2056458;28;20027;-68
2021/07/20 01:17:29;;;;;;;17.50;11.23;;;15.40;99.90;;;;;;2056387;28;20038;-67
2021/07/20 01:18:34;;;;;;;15.65;10.77;;;15.40;99.90;;;;;;2056211;28;20097;-67
2021/07/20 01:19:51;;;;;;;15.55;10.70;;;15.40;99.90;;;;;;2056550;28;20054;-67
2021/07/20 01:20:53;;;;;;;16.70;11.43;;;15.40;99.90;;;;;;2056507;28;20549;-67
2021/07/20 01:21:57;;;;;;;17.52;10.95;;;15.40;99.90;;;;;;2056261;28;20371;-68
2021/07/20 01:23:05;;;;;;;14.10;10.57;;;15.30;99.90;;;;;;2048774;28;20147;-67
2021/07/20 01:24:16;;;;;;;15.40;10.40;;;15.40;99.90;;;;;;2041232;28;20024;-68
2021/07/20 01:25:17;;;;;;;14.65;10.65;;;15.30;99.90;;;;;;2049841;28;20086;-68
2021/07/20 01:26:19;;;;;;;16.90;11.00;;;15.30;99.90;;;;;;2056377;28;20486;-67
2021/07/20 01:27:22;;;;;;;17.08;11.02;;;15.30;99.90;;;;;;2048326;29;20181;-68
2021/07/20 01:28:25;;;;;;;17.08;11.68;;;15.30;99.90;;;;;;2048796;28;20124;-68
2021/07/20 01:29:27;;;;;;;17.45;12.15;;;15.30;99.90;;;;;;2056051;28;20110;-68
2021/07/20 01:30:31;;;;;;;16.80;11.63;;;15.30;99.90;;;;;;2048487;28;20090;-68
2021/07/20 01:31:37;;;;;;;16.83;11.52;;;15.30;99.90;;;;;;2056349;28;20027;-67
2021/07/20 01:32:46;;;;;;;15.68;11.40;;;15.30;99.90;;;;;;2056154;28;20425;-67
2021/07/20 01:33:53;;;;;;;16.60;11.20;;;15.40;99.90;;;;;;2056084;28;20034;-67
2021/07/20 01:34:57;;;;;;;14.68;11.05;;;15.40;99.90;;;;;;2057045;28;20033;-67
2021/07/20 01:36:01;;;;;;;15.68;10.93;;;15.30;99.90;;;;;;2056295;28;20046;-67
2021/07/20 01:37:02;;;;;;;15.15;10.70;;;15.40;99.90;;;;;;2056448;28;20039;-68
2021/07/20 01:38:08;;;;;;;15.32;11.13;;;15.40;99.90;;;;;;2056346;28;20506;-68
2021/07/20 01:39:13;;;;;;;16.35;10.80;;;15.40;99.90;;;;;;2056304;28;20035;-67
2021/07/20 01:40:14;;;;;;;15.48;10.90;;;15.40;99.90;;;;;;2057040;28;20128;-69
2021/07/20 01:41:17;;;;;;;15.63;11.13;;;15.50;99.90;;;;;;2056040;28;20034;-68
2021/07/20 01:42:19;;;;;;;15.60;11.00;;;15.40;99.90;;;;;;2048225;28;20035;-68
2021/07/20 01:43:24;;;;;;;13.93;10.27;;;15.40;99.90;;;;;;2048257;28;20027;-68
2021/07/20 01:44:27;;;;;;;16.98;10.43;;;15.40;99.90;;;;;;2056209;28;20070;-67
2021/07/20 01:45:31;;;;;;;16.80;10.45;;;15.50;99.90;;;;;;2056494;28;20401;-69
2021/07/20 01:46:36;;;;;;;15.30;10.63;;;15.50;99.90;;;;;;2056299;28;20114;-71
2021/07/20 01:47:38;;;;;;;13.80;10.13;;;15.50;99.90;;;;;;2056595;28;20058;-67
2021/07/20 01:48:43;;;;;;;14.68;10.50;;;15.50;99.90;;;;;;2056628;28;20023;-69
2021/07/20 01:49:50;;;;;;;;;;;15.50;99.90;;;;;;2056732;28;20162;-68
2021/07/20 01:50:52;;;;;;;15.82;10.63;;;15.50;99.90;;;;;;2048485;28;20444;-67
2021/07/20 01:51:53;;;;;;;15.27;10.18;;;15.50;99.90;;;;;;2056294;28;20027;-68
2021/07/20 01:52:56;;;;;;;15.73;10.75;;;15.50;99.90;;;;;;2056674;28;20081;-69
2021/07/20 01:53:59;;;;;;;15.82;10.90;;;15.50;99.90;;;;;;2055976;28;20051;-68
2021/07/20 01:55:00;;;;;;;16.90;11.25;;;15.60;99.90;;;;;;2056465;28;20023;-68
2021/07/20 01:56:06;;;;;;;16.65;11.07;;;15.50;99.90;;;;;;2056610;28;20529;-69
2021/07/20 01:57:11;;;;;;;14.13;10.52;;;15.60;99.90;;;;;;2056638;28;20111;-67
2021/07/20 01:58:42;;;;;;;14.70;10.35;;;15.60;99.90;;;;;;2056109;28;20023;-68
2021/07/20 02:00:08;;;;;;;16.15;10.82;;;15.60;99.90;;;;;;2051170;28;20046;-68
2021/07/20 02:01:44;;;;;;;15.40;10.98;;;15.60;99.90;;;;;;2056189;28;20030;-69
2021/07/20 02:03:18;;;;;;;16.30;10.77;;;15.60;99.90;;;;;;2051158;28;20102;-68
2021/07/20 02:04:43;;;;;;;14.95;10.18;;;15.60;99.90;;;;;;2051493;28;20037;-68
2021/07/20 02:08:44;;;;;;;14.75;10.80;;;15.60;99.90;;;;;;2056058;28;20027;-68
2021/07/20 02:09:48;;;;;;;15.98;10.85;;;15.60;99.90;;;;;;2056063;28;20105;-68
2021/07/20 02:10:50;;;;;;;15.00;10.48;;;15.50;99.90;;;;;;2055993;28;20453;-68
2021/07/20 02:12:15;;;;;;;15.80;10.68;;;15.50;99.90;;;;;;2056111;28;20042;-68
2021/07/20 02:13:45;;;;;;;15.55;10.73;;;15.50;99.90;;;;;;2056190;28;20498;-68
2021/07/20 02:15:06;;;;;;;15.82;10.98;;;15.60;99.90;;;;;;2056583;28;20494;-68
2021/07/20 02:16:25;;;;;;;15.60;10.70;;;15.50;99.90;;;;;;2056709;28;20034;-69
2021/07/20 02:17:33;;;;;;;15.48;11.48;;;15.40;99.90;;;;;;2056694;28;20106;-68
2021/07/20 02:18:35;;;;;;;15.65;10.73;;;15.50;99.90;;;;;;2056021;28;20565;-68
2021/07/20 02:19:53;;;;;;;15.65;10.82;;;15.40;99.90;;;;;;2056156;28;20022;-68
2021/07/20 02:21:05;;;;;;;14.27;10.88;;;15.40;99.90;;;;;;2056554;28;20050;-69
2021/07/20 02:22:23;;;;;;;16.77;10.45;;;15.40;99.90;;;;;;2055971;28;20061;-68
2021/07/20 02:23:24;;;;;;;15.30;11.05;;;15.40;99.90;;;;;;2055370;28;20170;-68
2021/07/20 02:24:29;;;;;;;15.52;11.10;;;15.40;99.90;;;;;;2055855;28;20077;-70
2021/07/20 02:25:32;;;;;;;14.68;10.48;;;15.40;99.90;;;;;;2055994;28;20019;-68
2021/07/20 02:26:35;;;;;;;15.65;10.35;;;15.40;99.90;;;;;;2056590;28;20053;-68
2021/07/20 02:27:37;;;;;;;14.90;10.70;;;15.40;99.90;;;;;;2055667;28;20717;-68
2021/07/20 02:28:40;;;;;;;14.10;9.93;;;15.40;99.90;;;;;;2055879;28;20098;-67
2021/07/20 02:29:43;;;;;;;14.70;10.45;;;15.40;99.90;;;;;;2055893;28;20038;-69
2021/07/20 02:30:52;;;;;;;14.13;10.48;;;15.40;99.90;;;;;;2056074;28;20042;-69
2021/07/20 02:31:56;;;;;;;14.82;10.90;;;15.40;99.90;;;;;;2056533;28;20093;-69
2021/07/20 02:33:01;;;;;;;15.85;11.38;;;15.40;99.90;;;;;;2056346;28;20027;-67
2021/07/20 02:34:03;;;;;;;17.90;11.20;;;15.40;99.90;;;;;;2055624;28;20117;-67
2021/07/20 02:35:06;;;;;;;14.88;10.88;;;15.40;99.90;;;;;;2055993;28;20355;-69
2021/07/20 02:36:10;;;;;;;15.95;11.15;;;15.50;99.90;;;;;;2056560;28;20050;-69
2021/07/20 02:37:13;;;;;;;15.93;10.60;;;15.50;99.90;;;;;;2055982;28;20031;-69
2021/07/20 02:38:14;;;;;;;15.95;10.68;;;15.50;99.90;;;;;;2055895;28;20073;-69
2021/07/20 02:39:17;;;;;;;15.02;10.77;;;15.50;99.90;;;;;;2055771;28;20023;-69
2021/07/20 02:40:23;;;;;;;14.07;10.50;;;15.50;99.90;;;;;;2055842;28;20031;-68
2021/07/20 02:41:26;;;;;;;16.60;11.27;;;15.50;99.90;;;;;;2055673;28;20023;-69
2021/07/20 02:42:28;;;;;;;15.68;10.95;;;15.50;99.90;;;;;;2055764;28;20034;-69
2021/07/20 02:43:34;;;;;;;16.10;11.23;;;15.50;99.90;;;;;;2055532;28;20027;-68
2021/07/20 02:44:38;;;;;;;14.40;10.98;;;15.50;99.90;;;;;;2055832;28;20029;-67
2021/07/20 02:45:43;;;;;;;17.05;11.32;;;15.50;99.90;;;;;;2055870;28;20447;-69
2021/07/20 02:46:46;;;;;;;15.70;10.82;;;15.50;99.90;;;;;;2056409;28;20406;-69
2021/07/20 02:47:49;;;;;;;18.65;11.43;;;15.50;99.90;;;;;;2055810;28;20109;-68
2021/07/20 02:48:58;;;;;;;13.95;10.80;;;15.50;99.90;;;;;;2040684;28;20032;-68
2021/07/20 02:50:00;;;;;;;15.13;11.00;;;15.50;99.90;;;;;;2048759;28;20025;-68
2021/07/20 02:51:02;;;;;;;16.15;10.60;;;15.50;99.90;;;;;;2055665;28;20034;-67
2021/07/20 02:52:12;;;;;;;13.98;11.13;;;15.50;99.90;;;;;;2055829;28;20023;-67
2021/07/20 02:53:15;;;;;;;15.30;10.93;;;15.50;99.90;;;;;;2055596;28;20375;-67
2021/07/20 02:54:28;;;;;;;15.52;10.90;;;15.40;99.90;;;;;;2055951;28;20721;-67
2021/07/20 02:55:30;;;;;;;14.45;10.88;;;15.40;99.90;;;;;;2055571;28;20026;-67
2021/07/20 02:56:32;;;;;;;14.90;10.68;;;15.40;99.90;;;;;;2055783;28;20026;-67
2021/07/20 02:57:33;;;;;;;15.10;10.88;;;15.40;99.90;;;;;;2055896;28;20042;-67
2021/07/20 02:58:36;;;;;;;16.00;11.15;;;15.40;99.90;;;;;;2055821;28;20590;-69
2021/07/20 02:59:39;;;;;;;16.27;11.40;;;15.40;99.90;;;;;;2055834;28;20023;-67
2021/07/20 03:00:50;;;;;;;14.80;11.07;;;15.40;99.90;;;;;;2055970;28;20027;-66
2021/07/20 03:01:57;;;;;;;14.57;10.75;;;15.40;99.90;;;;;;2055767;28;20130;-67
2021/07/20 03:02:59;;;;;;;16.05;11.15;;;15.40;99.90;;;;;;2048510;28;20121;-67
2021/07/20 03:04:07;;;;;;;17.35;11.43;;;15.40;99.90;;;;;;2055485;28;20027;-67
2021/07/20 03:05:09;;;;;;;18.23;11.75;;;15.40;99.90;;;;;;2055821;28;20026;-67
2021/07/20 03:06:13;;;;;;;15.43;11.32;;;15.40;99.90;;;;;;2055792;28;20027;-68
2021/07/20 03:07:20;;;;;;;17.55;11.40;;;15.40;99.90;;;;;;2048037;28;20163;-67
2021/07/20 03:08:28;;;;;;;18.02;11.55;;;15.40;99.90;;;;;;2048785;28;20027;-67
2021/07/20 03:09:35;;;;;;;15.10;10.82;;;15.40;99.90;;;;;;2055593;28;20398;-67
2021/07/20 03:10:39;;;;;;;17.02;11.25;;;15.40;99.90;;;;;;2047732;29;20031;-66
2021/07/20 03:11:44;;;;;;;15.02;10.68;;;15.40;99.90;;;;;;2040546;28;20099;-68
2021/07/20 03:12:49;;;;;;;18.30;11.02;;;15.40;99.90;;;;;;2055782;28;20114;-67
2021/07/20 03:13:57;;;;;;;15.98;10.90;;;15.40;99.90;;;;;;2055575;28;20026;-67
2021/07/20 03:14:59;;;;;;;14.60;10.90;;;15.50;99.90;;;;;;2056087;28;20089;-67
2021/07/20 03:16:17;;;;;;;16.77;10.73;;;15.40;99.90;;;;;;2056741;28;20035;-67
2021/07/20 03:17:21;;;;;;;15.98;10.82;;;15.40;99.90;;;;;;2057124;28;20035;-67
2021/07/20 03:18:28;;;;;;;13.38;10.20;;;15.40;99.90;;;;;;2055976;28;20042;-67
2021/07/20 03:19:31;;;;;;;13.75;10.60;;;15.50;99.90;;;;;;2056041;28;20027;-67
2021/07/20 03:20:37;;;;;;;14.88;11.05;;;15.40;99.90;;;;;;2056023;28;20035;-67
2021/07/20 03:21:40;;;;;;;13.63;10.18;;;15.40;99.90;;;;;;2056494;28;20046;-67
2021/07/20 03:22:43;;;;;;;15.88;10.77;;;15.50;99.90;;;;;;2055848;28;20023;-67
2021/07/20 03:23:50;;;;;;;15.35;10.63;;;15.50;99.90;;;;;;2055750;28;20030;-67
2021/07/20 03:24:54;;;;;;;16.17;11.07;;;15.50;99.90;;;;;;2055543;28;20027;-67
2021/07/20 03:25:57;;;;;;;16.75;10.73;;;15.50;99.90;;;;;;2055729;28;20031;-67
2021/07/20 03:27:00;;;;;;;15.75;10.88;;;15.50;99.90;;;;;;2055567;28;20026;-67
2021/07/20 03:28:03;;;;;;;13.18;10.45;;;15.50;99.90;;;;;;2047807;28;20024;-67
2021/07/20 03:29:06;;;;;;;17.35;10.82;;;15.50;99.90;;;;;;2055480;28;20057;-67
2021/07/20 03:30:10;;;;;;;15.18;10.52;;;15.50;99.90;;;;;;2047952;28;20024;-67
2021/07/20 03:31:12;;;;;;;14.02;10.32;;;15.50;99.90;;;;;;2047815;28;20054;-68
2021/07/20 03:32:16;;;;;;;15.00;10.80;;;15.50;99.90;;;;;;2039886;28;20119;-67
2021/07/20 03:33:21;;;;;;;14.73;10.75;;;15.50;99.90;;;;;;2047601;28;20019;-68
2021/07/20 03:34:30;;;;;;;16.00;10.98;;;15.50;99.90;;;;;;2056218;28;20557;-68
2021/07/20 03:35:33;;;;;;;15.65;10.73;;;15.50;99.90;;;;;;2055471;28;20033;-68
2021/07/20 03:36:36;;;;;;;15.77;11.20;;;15.50;99.90;;;;;;2055617;28;20469;-68
2021/07/20 03:37:39;;;;;;;14.48;10.68;;;15.50;99.90;;;;;;2055597;28;20042;-68
2021/07/20 03:38:40;;;;;;;14.60;10.25;;;15.50;99.90;;;;;;2055699;28;20068;-68
2021/07/20 03:39:42;;;;;;;13.77;10.25;;;15.50;99.90;;;;;;2056324;28;20532;-68
2021/07/20 03:40:44;;;;;;;14.23;10.32;;;15.50;99.90;;;;;;2055634;28;20026;-68
2021/07/20 03:41:47;;;;;;;14.50;10.40;;;15.60;99.90;;;;;;2055750;28;20054;-68
2021/07/20 03:42:48;;;;;;;14.88;10.70;;;15.60;99.90;;;;;;2047760;28;20039;-67
2021/07/20 03:43:55;;;;;;;15.65;10.63;;;15.60;99.90;;;;;;2047944;28;20074;-68
2021/07/20 03:44:58;;;;;;;14.52;10.63;;;15.60;99.90;;;;;;2047850;28;20035;-68
2021/07/20 03:46:01;;;;;;;14.60;10.20;;;15.60;99.90;;;;;;2055680;28;20418;-67
2021/07/20 03:47:03;;;;;;;14.98;10.95;;;15.70;99.90;;;;;;2055413;28;20035;-69
2021/07/20 03:48:05;;;;;;;14.45;10.75;;;15.70;99.90;;;;;;2055453;28;20489;-68
2021/07/20 03:49:21;;;;;;;15.93;10.25;;;15.70;99.90;;;;;;2055648;28;20035;-68
2021/07/20 03:50:25;;;;;;;14.07;10.27;;;15.70;99.90;;;;;;2048117;28;20031;-68
2021/07/20 03:51:27;;;;;;;12.93;9.88;;;15.70;99.90;;;;;;2055616;28;20027;-67
2021/07/20 03:52:29;;;;;;;13.85;10.48;;;15.70;99.90;;;;;;2055684;28;20540;-68
2021/07/20 03:53:33;;;;;;;15.50;10.50;;;15.70;99.90;;;;;;2047628;28;20027;-68
2021/07/20 03:54:35;;;;;;;15.20;10.73;;;15.70;99.90;;;;;;2055664;28;20054;-67
2021/07/20 03:55:37;;;;;;;15.50;10.25;;;15.80;99.90;;;;;;2055386;28;20042;-67
2021/07/20 03:56:41;;;;;;;17.77;11.48;;;15.80;99.90;;;;;;2055517;28;20041;-72
2021/07/20 03:57:45;;;;;;;15.00;11.32;;;15.80;99.90;;;;;;2055474;28;20623;-68
2021/07/20 03:58:48;;;;;;;15.23;10.98;;;15.80;99.90;;;;;;2055986;28;20023;-67
2021/07/20 03:59:58;;;;;;;15.18;10.50;;;15.80;99.90;;;;;;2055568;28;20061;-67
2021/07/20 04:01:13;;;;;;;14.52;10.40;;;15.80;99.90;;;;;;2056044;28;20035;-67
2021/07/20 04:02:18;;;;;;;13.60;10.15;;;15.90;99.90;;;;;;2055370;28;20030;-68
2021/07/20 04:03:21;;;;;;;13.60;10.18;;;15.80;99.90;;;;;;2055342;28;20031;-68
2021/07/20 04:04:43;;;;;;;13.77;10.73;;;15.90;99.90;;;;;;2056046;28;20105;-68
2021/07/20 04:05:47;;;;;;;16.60;10.75;;;15.90;99.90;;;;;;2055694;28;20114;-68
2021/07/20 04:06:50;;;;;;;13.07;10.18;;;15.90;99.90;;;;;;2047429;29;20042;-68
2021/07/20 04:08:13;;;;;;;16.00;10.35;;;15.90;99.90;;;;;;2044936;28;20027;-68
2021/07/20 04:09:22;;;;;;;13.68;10.07;;;15.90;99.90;;;;;;2048797;28;20034;-68
2021/07/20 04:10:53;;;;;;;14.38;9.77;;;16.00;99.90;;;;;;2042746;29;20127;-67
2021/07/20 04:11:58;;;;;;;15.05;10.07;;;16.00;99.80;;;;;;2046800;29;20032;-68
2021/07/20 04:13:20;;;;;;;15.23;10.07;;;16.10;99.60;;;;;;2060733;28;20107;-68
2021/07/20 04:14:32;;;;;;;16.42;10.23;;;16.10;99.40;;;;;;2047419;28;20027;-68
2021/07/20 04:15:40;;;;;;;13.30;9.88;;;16.10;99.40;;;;;;2049096;28;20023;-68
2021/07/20 04:16:47;;;;;;;13.32;10.10;;;16.10;99.30;;;;;;2040596;29;20725;-68
2021/07/20 04:17:48;;;;;;;12.52;9.82;;;16.10;99.10;;;;;;2040206;29;20131;-68
2021/07/20 04:18:49;;;;;;;16.77;10.32;;;16.10;99.10;;;;;;2047421;29;20027;-68
2021/07/20 04:19:56;;;;;;;14.82;10.23;;;16.10;99.10;;;;;;2048204;28;20078;-69
2021/07/20 04:21:04;;;;;;;12.35;9.40;;;16.20;99.00;;;;;;2047919;28;20171;-68
2021/07/20 04:22:05;;;;;;;12.57;9.45;;;16.20;98.90;;;;;;2047543;28;20131;-68
2021/07/20 04:23:06;;;;;;;13.20;9.20;;;16.20;98.50;;;;;;2055350;28;20675;-69
2021/07/20 04:24:15;;;;;;;12.98;9.27;;;16.20;98.30;;;;;;2054807;28;20034;-68
2021/07/20 04:25:19;;;;;;;12.85;9.48;;;16.20;98.00;;;;;;2047531;28;20129;-68
2021/07/20 04:26:25;;;;;;;13.77;9.40;;;16.30;97.90;;;;;;2048131;28;20066;-68
2021/07/20 04:27:27;;;;;;;14.80;9.85;;;16.30;97.60;;;;;;2039503;29;20028;-68
2021/07/20 04:28:28;;;;;;;15.73;10.98;;;16.20;97.40;;;;;;2039753;28;20028;-68
2021/07/20 04:29:29;;;;;;;13.93;9.98;;;16.30;97.40;;;;;;2055303;28;20052;-68
2021/07/20 04:30:36;;;;;;;14.85;10.20;;;16.30;96.90;;;;;;2055884;28;20037;-68
2021/07/20 04:31:40;;;;;;;15.65;11.07;;;16.30;96.60;;;;;;2055326;28;20030;-68
2021/07/20 04:32:47;;;;;;;13.73;9.98;;;16.30;96.80;;;;;;2055239;28;20031;-68
2021/07/20 04:33:50;;;;;;;15.18;9.55;;;16.30;96.90;;;;;;2055062;28;20457;-69
2021/07/20 04:35:10;;;;;;;;;;;16.30;96.80;;;;;;2056704;28;20035;-68
2021/07/20 04:36:19;;;;;;;12.63;9.73;;;16.30;96.70;;;;;;2055367;28;19956;-69
2021/07/20 04:37:23;;;;;;;13.63;9.45;;;16.30;96.70;;;;;;2055173;28;20034;-68
2021/07/20 04:38:30;;;;;;;15.00;9.65;;;16.40;96.60;;;;;;2055443;28;20026;-69
2021/07/20 04:39:36;;;;;;;14.45;10.18;;;16.40;96.60;;;;;;2055182;28;20039;-69
2021/07/20 04:40:39;;;;;;;16.52;10.00;;;16.40;96.50;;;;;;2048028;28;20113;-69
2021/07/20 04:41:41;;;;;;;12.70;9.30;;;16.40;96.30;;;;;;2047372;28;20106;-69
2021/07/20 04:42:43;;;;;;;12.30;9.55;;;16.40;96.10;;;;;;2055228;28;20126;-69
2021/07/20 04:43:46;;;;;;;13.70;9.43;;;16.50;96.20;;;;;;2062852;28;20034;-69
2021/07/20 04:44:48;;;;;;;15.75;9.60;;;16.50;96.20;;;;;;2055183;28;20027;-69
2021/07/20 04:45:56;;;;;;;16.17;10.02;;;16.50;96.10;;;;;;2048235;28;20034;-69
2021/07/20 04:46:58;;;;;;;14.57;9.73;;;16.50;95.80;;;;;;2048672;29;20031;-69
2021/07/20 04:47:59;;;;;;;14.40;9.93;;;16.50;95.80;;;;;;2040981;28;20071;-69
2021/07/20 04:49:13;;;;;;;12.20;9.07;;;16.60;95.60;;;;;;2050443;28;20026;-69
2021/07/20 04:50:15;;;;;;;12.77;8.90;;;16.60;95.50;;;;;;2056552;28;20130;-69
2021/07/20 04:51:16;;;;;;;18.23;9.55;;;16.60;95.50;;;;;;2056393;28;20030;-69
2021/07/20 04:52:20;;;;;;;12.45;9.60;;;16.60;95.40;;;;;;2048825;28;20080;-69
2021/07/20 04:53:22;;;;;;;12.50;9.70;;;16.60;95.40;;;;;;2048689;28;20517;-69
2021/07/20 04:54:24;;;;;;;13.20;9.40;;;16.70;95.20;;;;;;2048439;28;20549;-69
2021/07/20 04:55:34;;;;;;;14.15;9.23;;;16.70;95.10;;;;;;2049613;28;20032;-69
2021/07/20 04:56:34;;;;;;;13.68;9.68;;;16.70;95.00;;;;;;2048894;28;20114;-69
2021/07/20 04:57:37;;;;;;;13.05;9.73;;;16.70;94.60;;;;;;2048578;28;20129;-69
2021/07/20 04:58:40;;;;;;;15.07;9.32;;;16.70;94.20;;;;;;2056371;28;20027;-69
2021/07/20 04:59:42;;;;;;;12.10;9.45;;;16.80;94.20;;;;;;2048742;28;20552;-69
2021/07/20 05:00:49;;;;;;;13.82;9.52;;;16.70;94.40;;;;;;2056609;28;20039;-69
2021/07/20 05:01:54;;;;;;;14.13;10.00;;;16.80;94.50;;;;;;2056763;28;20034;-69
2021/07/20 05:03:01;;;;;;;12.07;9.30;;;16.80;94.20;;;;;;2049731;28;20771;-69
2021/07/20 05:04:05;;;;;;;14.25;9.63;;;16.80;94.10;;;;;;2048732;28;20035;-68
2021/07/20 05:05:22;;;;;;;14.30;9.27;;;16.80;94.10;;;;;;2056792;28;20031;-68
2021/07/20 05:06:27;;;;;;;13.13;8.88;;;16.80;93.90;;;;;;2048630;29;20023;-68
2021/07/20 05:07:28;;;;;;;13.88;9.05;;;16.80;93.70;;;;;;2049092;28;20035;-68
2021/07/20 05:08:33;;;;;;;15.45;10.20;;;16.90;93.60;;;;;;2056650;28;20077;-68
2021/07/20 05:09:36;;;;;;;12.85;8.90;;;16.90;93.50;;;;;;2049207;28;20474;-68
2021/07/20 05:10:37;;;;;;;12.68;9.15;;;16.90;93.30;;;;;;2056538;28;20030;-69
2021/07/20 05:11:55;;;;;;;11.45;8.65;;;16.90;93.20;;;;;;2056299;28;20034;-68
2021/07/20 05:12:58;;;;;;;13.50;8.43;;;17.00;93.00;;;;;;2058631;28;20038;-68
2021/07/20 05:13:59;;;;;;;12.23;8.85;;;17.00;92.50;;;;;;2056108;28;20556;-67
2021/07/20 05:15:00;;;;;;;11.35;8.43;;;17.00;92.30;;;;;;2056900;28;20038;-68
2021/07/20 05:16:05;;;;;;;12.10;8.68;;;17.00;92.20;;;;;;2056771;28;20474;-68
2021/07/20 05:17:21;;;;;;;13.35;9.10;;;17.00;92.40;;;;;;2051447;28;20039;-68
2021/07/20 05:18:22;;;;;;;15.77;9.43;;;17.10;92.70;;;;;;2049484;29;20054;-69
2021/07/20 05:19:26;;;;;;;12.40;9.00;;;17.10;92.80;;;;;;2041910;28;20083;-68
2021/07/20 05:20:30;;;;;;;13.57;9.45;;;17.10;93.20;;;;;;2042384;29;20028;-68
2021/07/20 05:21:39;;;;;;;11.55;8.95;;;17.10;93.60;;;;;;2043791;28;20561;-68
2021/07/20 05:22:41;;;;;;;12.25;8.90;;;17.10;93.50;;;;;;2048758;28;20294;-67
2021/07/20 05:23:44;;;;;;;13.55;9.07;;;17.10;93.60;;;;;;2048923;28;20035;-68
2021/07/20 05:25:13;;;;;;;13.00;9.40;;;17.20;93.70;;;;;;2054031;28;20114;-68
2021/07/20 05:26:16;;;;;;;13.10;9.73;;;17.20;94.00;;;;;;2049313;28;20054;-68
2021/07/20 05:27:17;;;;;;;16.77;9.95;;;17.20;93.90;;;;;;2057013;28;20065;-67
2021/07/20 05:28:18;;;;;;;13.60;9.70;;;17.20;93.80;;;;;;2056984;28;20113;-68
2021/07/20 05:29:20;;;;;;;14.38;8.95;;;17.20;93.90;;;;;;2049333;28;20086;-68
2021/07/20 05:30:30;;;;;;;11.40;8.35;;;17.20;93.30;;;;;;2049207;29;20122;-67
2021/07/20 05:31:34;;;;;;;11.02;8.90;;;17.30;93.30;;;;;;2042695;29;20035;-68
2021/07/20 05:32:44;;;;;;;10.73;8.68;;;17.20;92.70;;;;;;2049294;28;20027;-67
2021/07/20 05:33:49;;;;;;;11.93;8.88;;;17.20;92.30;;;;;;2042223;29;20051;-67
2021/07/20 05:34:50;;;;;;;12.45;8.80;;;17.30;91.80;;;;;;2041885;28;20028;-68